This is the latest recevied weather packets stored in our database for station/object EA3CO-11. If no packets are shown the sender has not sent any weather packets the latest 10 day(s).
| Time | Temp. | Humidity | Pressure | Rain* | Wind** | Luminosity | Snow |
|---|---|---|---|---|---|---|---|
| 1777727934 | 18.89° C | 71% | 1024.4 hPa | - | - | - | - |
| 1777727034 | 18.89° C | 69% | 1024.5 hPa | - | - | - | - |
| 1777726134 | 18.89° C | 65% | 1024.6 hPa | - | - | - | - |
| 1777725234 | 20° C | 64% | 1024.6 hPa | - | - | - | - |
| 1777723411 | 20.56° C | 61% | 1024.6 hPa | - | - | - | - |
| 1777720666 | 18.89° C | 66% | 1024.8 hPa | - | - | - | - |
| 1777719766 | 20° C | 58% | 1024.9 hPa | - | - | - | - |
| 1777718866 | 20° C | 57% | 1025.3 hPa | - | - | - | - |
| 1777717966 | 20° C | 56% | 1025.2 hPa | - | - | - | - |
| 1777717066 | 20° C | 57% | 1025.2 hPa | - | - | - | - |
| 1777716166 | 20° C | 51% | 1025.3 hPa | - | - | - | - |
| 1777715265 | 20° C | 57% | 1025.4 hPa | - | - | - | - |
| 1777714365 | 18.89° C | 64% | 1025.5 hPa | - | - | - | - |
| 1777713465 | 17.78° C | 70% | 1025.6 hPa | - | - | - | - |
| 1777712565 | 17.22° C | 71% | 1025.7 hPa | - | - | - | - |
| 1777711665 | 17.78° C | 71% | 1025.6 hPa | - | - | - | - |
| 1777710765 | 17.78° C | 71% | 1025.7 hPa | - | - | - | - |
| 1777709865 | 17.22° C | 73% | 1025.7 hPa | - | - | - | - |
| 1777708965 | 17.22° C | 75% | 1025.6 hPa | - | - | - | - |
| 1777708065 | 16.67° C | 75% | 1025.7 hPa | - | - | - | - |
| 1777707164 | 17.22° C | 74% | 1025.6 hPa | - | - | - | - |
| 1777706264 | 17.22° C | 73% | 1025.6 hPa | - | - | - | - |
| 1777703564 | 16.67° C | 76% | 1025.6 hPa | - | - | - | - |
| 1777702664 | 16.67° C | 77% | 1025.6 hPa | - | - | - | - |
| 1777701764 | 16.11° C | 79% | 1025.5 hPa | - | - | - | - |
* Rain since midnight (hover to see other rain measurements)
** Current wind speed in m/s (hover to see current wind gust speed)